Time;durP1;ratioP1;P1;durP2;ratioP2;P2;SDS_P1;SDS_P2;PMS_P1;PMS_P2;Temp;Humidity;BMP_temperature;BMP_pressure;BME280_temperature;BME280_humidity;BME280_pressure;Samples;Min_cycle;Max_cycle;Signal;HPM_P1;HPM_P2
2024/04/09 00:00:30;;;;;;;1.02;0.70;;;15.30;87.20;;;;;;5096559;28;20481;-77
2024/04/09 00:02:55;;;;;;;1.85;1.00;;;15.30;87.20;;;;;;5077197;28;20044;-76
2024/04/09 00:05:24;;;;;;;1.00;0.80;;;15.20;87.20;;;;;;5113916;28;20040;-76
2024/04/09 00:07:50;;;;;;;1.20;0.90;;;15.30;87.40;;;;;;5079429;28;20079;-76
2024/04/09 00:10:19;;;;;;;0.98;0.57;;;15.20;87.30;;;;;;5113916;28;20059;-76
2024/04/09 00:12:46;;;;;;;2.08;1.00;;;15.20;87.40;;;;;;5113701;28;20150;-76
2024/04/09 00:15:12;;;;;;;2.47;1.02;;;15.20;87.40;;;;;;5095871;28;20130;-75
2024/04/09 00:17:44;;;;;;;1.02;0.80;;;15.20;87.40;;;;;;5113702;28;20135;-76
2024/04/09 00:20:12;;;;;;;1.30;0.80;;;15.10;87.40;;;;;;5096393;28;20088;-76
2024/04/09 00:22:39;;;;;;;2.20;0.70;;;15.10;87.50;;;;;;5113555;28;21388;-76
2024/04/09 00:25:05;;;;;;;1.23;0.80;;;15.10;87.50;;;;;;5095671;28;20374;-77
2024/04/09 00:27:31;;;;;;;0.80;0.80;;;15.10;87.50;;;;;;5095437;28;20118;-76
2024/04/09 00:29:57;;;;;;;1.60;0.80;;;15.10;87.50;;;;;;5113504;28;20071;-77
2024/04/09 00:32:22;;;;;;;0.93;0.85;;;15.10;87.50;;;;;;5113820;28;20057;-75
2024/04/09 00:34:48;;;;;;;0.70;0.52;;;15.10;87.60;;;;;;5113893;28;20053;-75
2024/04/09 00:37:14;;;;;;;0.63;0.63;;;15.10;87.60;;;;;;5094527;28;20082;-76
2024/04/09 00:39:41;;;;;;;0.65;0.65;;;15.10;87.70;;;;;;5094925;28;20131;-77
2024/04/09 00:42:09;;;;;;;1.35;0.70;;;15.00;87.70;;;;;;5113984;28;20043;-76
2024/04/09 00:44:36;;;;;;;0.73;0.68;;;15.00;87.70;;;;;;5113441;28;22279;-77
2024/04/09 00:47:04;;;;;;;1.55;1.00;;;15.00;87.80;;;;;;5113752;28;20164;-77
2024/04/09 00:49:32;;;;;;;1.15;0.90;;;15.00;87.90;;;;;;5095177;28;20039;-77
2024/04/09 00:51:58;;;;;;;0.85;0.73;;;15.00;87.90;;;;;;5111770;28;20040;-77
2024/04/09 00:54:24;;;;;;;1.40;0.70;;;14.90;87.90;;;;;;5113539;28;20047;-77
2024/04/09 00:56:50;;;;;;;1.15;0.90;;;14.90;88.00;;;;;;5113412;28;20043;-77
2024/04/09 00:59:16;;;;;;;0.75;0.75;;;14.90;88.00;;;;;;5112929;28;20058;-76
2024/04/09 01:01:43;;;;;;;0.80;0.65;;;14.90;88.00;;;;;;5112885;28;20039;-77
2024/04/09 01:04:09;;;;;;;1.38;0.70;;;14.90;88.00;;;;;;5094661;28;20114;-76
2024/04/09 01:06:36;;;;;;;0.77;0.70;;;14.90;88.10;;;;;;5113001;28;20042;-77
2024/04/09 01:09:03;;;;;;;0.80;0.80;;;14.80;88.70;;;;;;5078005;28;20067;-76
2024/04/09 01:11:29;;;;;;;1.05;0.82;;;14.70;88.10;;;;;;5112871;28;20051;-77
2024/04/09 01:13:54;;;;;;;0.60;0.60;;;14.80;88.20;;;;;;5094587;28;20040;-76
2024/04/09 01:16:21;;;;;;;0.93;0.75;;;14.80;88.30;;;;;;5113337;28;20043;-75
2024/04/09 01:18:48;;;;;;;1.85;0.85;;;14.80;88.30;;;;;;5094284;28;20032;-76
2024/04/09 01:21:14;;;;;;;1.25;0.77;;;14.80;88.30;;;;;;5112650;28;20036;-74
2024/04/09 01:23:40;;;;;;;1.13;0.98;;;14.80;88.30;;;;;;5094794;28;20051;-74
2024/04/09 01:26:09;;;;;;;0.70;0.60;;;14.80;88.40;;;;;;5077623;28;20042;-75
2024/04/09 01:28:36;;;;;;;1.20;0.80;;;14.80;88.40;;;;;;5078415;28;20131;-74
2024/04/09 01:31:02;;;;;;;0.98;0.80;;;14.70;88.40;;;;;;5112433;28;20035;-75
2024/04/09 01:33:28;;;;;;;0.95;0.80;;;14.70;88.50;;;;;;5112369;28;20050;-74
2024/04/09 01:35:54;;;;;;;0.80;0.68;;;14.70;88.50;;;;;;5094199;28;20043;-74
2024/04/09 01:38:20;;;;;;;0.60;0.60;;;14.70;88.60;;;;;;5077374;28;20040;-74
2024/04/09 01:40:47;;;;;;;1.00;0.75;;;14.70;88.70;;;;;;5112318;28;20058;-74
2024/04/09 01:43:12;;;;;;;0.60;0.60;;;14.70;88.70;;;;;;5112418;28;20039;-75
2024/04/09 01:45:38;;;;;;;0.75;0.63;;;14.70;88.70;;;;;;5094221;28;20043;-75
2024/04/09 01:48:06;;;;;;;0.50;0.50;;;14.60;88.60;;;;;;5094113;28;20036;-74
2024/04/09 01:50:36;;;;;;;1.00;0.80;;;14.60;88.60;;;;;;5077803;28;20092;-74
2024/04/09 01:53:03;;;;;;;1.38;0.82;;;14.60;88.60;;;;;;5061362;28;20039;-74
2024/04/09 01:55:29;;;;;;;0.70;0.70;;;14.60;88.70;;;;;;5112650;28;20044;-74
2024/04/09 01:57:55;;;;;;;1.05;0.60;;;14.70;88.70;;;;;;5112156;28;20062;-74
2024/04/09 02:00:21;;;;;;;1.25;0.82;;;14.60;88.70;;;;;;5112092;28;20443;-74
2024/04/09 02:02:52;;;;;;;0.60;0.57;;;14.60;89.30;;;;;;5112114;28;20043;-74
2024/04/09 02:05:19;;;;;;;0.57;0.55;;;14.60;88.80;;;;;;5112243;28;20069;-74
2024/04/09 02:07:46;;;;;;;0.60;0.60;;;14.60;88.80;;;;;;5112415;28;20047;-74
2024/04/09 02:10:13;;;;;;;0.70;0.70;;;14.60;88.80;;;;;;5077074;28;20036;-74
2024/04/09 02:12:39;;;;;;;0.80;0.70;;;14.60;88.80;;;;;;5112203;28;20122;-74
2024/04/09 02:15:06;;;;;;;0.40;0.40;;;14.60;88.80;;;;;;5093921;28;20051;-74
2024/04/09 02:17:32;;;;;;;0.50;0.50;;;14.60;88.80;;;;;;5060145;28;20046;-75
2024/04/09 02:19:58;;;;;;;0.57;0.50;;;14.50;88.80;;;;;;5093749;28;20052;-74
2024/04/09 02:22:24;;;;;;;0.40;0.40;;;14.50;88.80;;;;;;5111983;28;20045;-74
2024/04/09 02:24:51;;;;;;;0.50;0.50;;;14.50;88.90;;;;;;5093814;28;20373;-74
2024/04/09 02:27:17;;;;;;;0.40;0.40;;;14.50;88.90;;;;;;5112245;28;20039;-74
2024/04/09 02:29:43;;;;;;;0.50;0.35;;;14.50;89.00;;;;;;5093747;28;20032;-74
2024/04/09 02:32:10;;;;;;;0.40;0.40;;;14.50;88.90;;;;;;5112376;28;20500;-75
2024/04/09 02:34:36;;;;;;;0.40;0.40;;;14.50;88.90;;;;;;5093559;28;20063;-74
2024/04/09 02:37:04;;;;;;;0.20;0.20;;;14.40;88.90;;;;;;5093548;28;20043;-75
2024/04/09 02:39:31;;;;;;;0.30;0.30;;;14.50;88.90;;;;;;5112028;28;20044;-75
2024/04/09 02:41:57;;;;;;;0.55;0.40;;;14.50;89.00;;;;;;5112095;28;20044;-74
2024/04/09 02:44:23;;;;;;;0.88;0.57;;;14.40;88.90;;;;;;5111869;28;20086;-74
2024/04/09 02:46:49;;;;;;;0.40;0.40;;;14.40;89.00;;;;;;5093851;28;20442;-74
2024/04/09 02:49:15;;;;;;;0.30;0.30;;;14.40;89.10;;;;;;5077431;28;20038;-74
2024/04/09 02:51:41;;;;;;;0.45;0.32;;;14.40;89.10;;;;;;5111499;28;20122;-74
2024/04/09 02:54:09;;;;;;;0.80;0.50;;;14.40;89.10;;;;;;5093451;28;20074;-75
2024/04/09 02:56:34;;;;;;;0.30;0.30;;;14.40;89.10;;;;;;5093097;28;20130;-74
2024/04/09 02:59:01;;;;;;;0.80;0.50;;;14.40;89.10;;;;;;5094144;28;20523;-74
2024/04/09 03:01:27;;;;;;;0.52;0.52;;;14.40;89.10;;;;;;5097201;28;20417;-73
2024/04/09 03:03:52;;;;;;;0.82;0.70;;;14.40;89.00;;;;;;5079885;28;20184;-74
2024/04/09 03:06:18;;;;;;;0.77;0.50;;;14.40;89.00;;;;;;5114954;28;20461;-74
2024/04/09 03:08:44;;;;;;;0.63;0.40;;;14.40;88.90;;;;;;5115210;28;20438;-73
2024/04/09 03:11:14;;;;;;;0.77;0.60;;;14.40;88.80;;;;;;5114861;28;20120;-73
2024/04/09 03:13:42;;;;;;;1.35;0.50;;;14.40;88.90;;;;;;5112729;28;20122;-74
2024/04/09 03:16:12;;;;;;;1.65;0.68;;;14.40;88.80;;;;;;5097005;28;20040;-74
2024/04/09 03:18:38;;;;;;;0.63;0.57;;;14.40;88.80;;;;;;5114967;28;20039;-73
2024/04/09 03:21:04;;;;;;;0.40;0.40;;;14.40;88.70;;;;;;5115145;28;20553;-73
2024/04/09 03:23:29;;;;;;;0.55;0.55;;;14.40;88.80;;;;;;5114600;28;20393;-74
2024/04/09 03:25:55;;;;;;;1.08;0.60;;;14.40;88.80;;;;;;5115142;28;20040;-73
2024/04/09 03:28:21;;;;;;;1.45;0.45;;;14.50;88.80;;;;;;5114579;28;20046;-74
2024/04/09 03:30:56;;;;;;;1.08;0.68;;;14.40;88.70;;;;;;5114459;28;20061;-73
2024/04/09 03:33:21;;;;;;;0.82;0.50;;;14.40;88.70;;;;;;5096185;28;20401;-74
2024/04/09 03:35:57;;;;;;;0.63;0.45;;;14.50;88.70;;;;;;5114776;28;20024;-73
2024/04/09 03:38:23;;;;;;;1.85;0.38;;;14.40;88.70;;;;;;5095941;28;20048;-74
2024/04/09 03:41:01;;;;;;;1.35;0.50;;;14.40;88.70;;;;;;5114702;28;20375;-74
2024/04/09 03:43:27;;;;;;;0.88;0.40;;;14.40;88.80;;;;;;5095813;28;20074;-73
2024/04/09 03:46:12;;;;;;;0.52;0.40;;;14.40;88.80;;;;;;5095994;28;20051;-73
2024/04/09 03:48:43;;;;;;;1.35;0.70;;;14.40;88.90;;;;;;5113553;28;20047;-73
2024/04/09 03:51:10;;;;;;;1.38;0.50;;;14.30;88.90;;;;;;5095969;28;20454;-73
2024/04/09 03:53:37;;;;;;;0.40;0.40;;;14.40;89.00;;;;;;5096465;28;20043;-73
2024/04/09 03:56:05;;;;;;;0.77;0.70;;;14.30;89.00;;;;;;5095615;28;20071;-73
2024/04/09 03:58:33;;;;;;;0.65;0.63;;;14.30;89.10;;;;;;5112109;28;20374;-73
2024/04/09 04:01:01;;;;;;;2.35;0.90;;;14.40;89.20;;;;;;5113910;28;20493;-73
2024/04/09 04:03:28;;;;;;;1.05;0.90;;;14.30;89.10;;;;;;5095961;28;20538;-73
2024/04/09 04:05:55;;;;;;;1.35;0.70;;;14.30;89.30;;;;;;5114311;28;20036;-73
2024/04/09 04:08:23;;;;;;;2.63;0.80;;;14.30;89.30;;;;;;5114148;28;20028;-74
2024/04/09 04:10:57;;;;;;;0.90;0.90;;;14.30;89.40;;;;;;5113372;28;20500;-73
2024/04/09 04:13:25;;;;;;;1.95;0.90;;;14.30;89.40;;;;;;5094999;28;20111;-74
2024/04/09 04:16:12;;;;;;;1.05;0.88;;;14.30;89.40;;;;;;5095660;28;20074;-74
2024/04/09 04:18:39;;;;;;;1.13;1.00;;;14.20;89.40;;;;;;5113467;28;20035;-73
2024/04/09 04:21:07;;;;;;;1.15;0.88;;;14.30;89.40;;;;;;5113555;28;20489;-73
2024/04/09 04:23:33;;;;;;;1.10;0.95;;;14.30;89.40;;;;;;5113899;28;20031;-73
2024/04/09 04:26:02;;;;;;;1.38;1.02;;;14.30;89.40;;;;;;5114210;28;20122;-73
2024/04/09 04:28:30;;;;;;;1.00;0.90;;;14.30;89.40;;;;;;5113612;28;20059;-73
2024/04/09 04:30:56;;;;;;;2.72;1.20;;;14.30;89.40;;;;;;5095584;28;20032;-73
2024/04/09 04:33:22;;;;;;;1.63;1.10;;;14.30;89.40;;;;;;5113724;28;20043;-73
2024/04/09 04:35:47;;;;;;;1.80;1.30;;;14.30;89.40;;;;;;5113810;28;20520;-74
2024/04/09 04:38:13;;;;;;;1.60;1.20;;;14.30;89.40;;;;;;5114070;28;20112;-73
2024/04/09 04:40:39;;;;;;;1.50;1.30;;;14.30;89.40;;;;;;5114213;28;20503;-73
2024/04/09 04:43:05;;;;;;;1.70;1.23;;;14.20;89.40;;;;;;5113567;28;20054;-74
2024/04/09 04:45:31;;;;;;;3.53;1.63;;;14.20;89.40;;;;;;5095263;28;20046;-74
2024/04/09 04:47:58;;;;;;;2.13;1.50;;;14.20;89.50;;;;;;5095008;28;20401;-73
2024/04/09 04:50:24;;;;;;;2.08;1.40;;;14.20;89.60;;;;;;5095089;28;20458;-73
2024/04/09 04:52:50;;;;;;;2.17;1.40;;;14.20;89.60;;;;;;5113410;28;20040;-73
2024/04/09 04:55:15;;;;;;;2.95;1.70;;;14.20;89.70;;;;;;5078295;28;20048;-73
2024/04/09 04:57:41;;;;;;;2.70;1.35;;;14.20;89.70;;;;;;5095189;28;20036;-74
2024/04/09 05:00:09;;;;;;;2.40;1.30;;;14.10;89.70;;;;;;5095021;28;20036;-74
2024/04/09 05:02:37;;;;;;;1.75;1.20;;;14.10;89.80;;;;;;5113352;28;20043;-74
2024/04/09 05:05:04;;;;;;;1.52;1.13;;;14.10;89.80;;;;;;5113352;28;20454;-74
2024/04/09 05:07:30;;;;;;;1.67;1.25;;;14.10;89.80;;;;;;5113369;28;20366;-74
2024/04/09 05:09:56;;;;;;;3.30;1.45;;;14.10;89.80;;;;;;5095203;28;20051;-73
2024/04/09 05:12:22;;;;;;;1.73;1.13;;;14.00;90.10;;;;;;5078068;28;20048;-74
2024/04/09 05:14:48;;;;;;;1.20;1.10;;;14.00;89.80;;;;;;5113063;28;20044;-74
2024/04/09 05:17:13;;;;;;;1.50;1.13;;;14.10;89.80;;;;;;5112812;28;20488;-75
2024/04/09 05:19:39;;;;;;;1.83;1.40;;;14.10;89.80;;;;;;5095289;28;20039;-73
2024/04/09 05:22:05;;;;;;;3.53;1.55;;;14.00;89.80;;;;;;5094032;28;20051;-74
2024/04/09 05:24:33;;;;;;;2.88;1.40;;;14.00;89.80;;;;;;5113543;28;20067;-74
2024/04/09 05:26:59;;;;;;;2.10;1.50;;;14.00;89.70;;;;;;5112963;28;20065;-74
2024/04/09 05:29:25;;;;;;;2.33;1.80;;;14.00;89.70;;;;;;5094605;28;20044;-74
2024/04/09 05:31:50;;;;;;;3.55;1.90;;;14.00;89.70;;;;;;5094553;28;20062;-74
2024/04/09 05:34:16;;;;;;;3.38;2.00;;;14.00;89.80;;;;;;5077854;28;20139;-73
2024/04/09 05:36:43;;;;;;;2.75;1.85;;;14.00;89.70;;;;;;5094504;28;20043;-74
2024/04/09 05:39:09;;;;;;;1.67;1.50;;;13.90;89.70;;;;;;5112784;28;20126;-74
2024/04/09 05:41:35;;;;;;;1.70;1.45;;;13.90;89.70;;;;;;5094957;28;20157;-74
2024/04/09 05:44:01;;;;;;;2.45;1.90;;;13.90;89.70;;;;;;5112973;28;20560;-73
2024/04/09 05:46:27;;;;;;;4.60;1.80;;;13.90;89.70;;;;;;5113084;28;20045;-73
2024/04/09 05:48:52;;;;;;;3.33;1.33;;;13.90;89.70;;;;;;5094409;28;20063;-72
2024/04/09 05:51:18;;;;;;;1.58;1.40;;;13.80;89.70;;;;;;5112717;28;20105;-73
2024/04/09 05:53:44;;;;;;;1.33;1.20;;;13.90;89.80;;;;;;5113021;28;20544;-73
2024/04/09 05:56:09;;;;;;;1.30;1.20;;;13.80;89.80;;;;;;5112625;28;20039;-73
2024/04/09 05:58:35;;;;;;;1.00;0.90;;;13.80;89.80;;;;;;5112782;28;20039;-73
2024/04/09 06:01:00;;;;;;;1.42;1.27;;;13.80;89.80;;;;;;5077470;28;20074;-72
2024/04/09 06:03:27;;;;;;;0.95;0.95;;;13.70;89.80;;;;;;5112681;28;20503;-73
2024/04/09 06:05:57;;;;;;;0.90;0.90;;;13.70;89.80;;;;;;5112808;28;20176;-73
2024/04/09 06:08:23;;;;;;;0.90;0.85;;;13.70;89.90;;;;;;5112519;28;20120;-73
2024/04/09 06:10:48;;;;;;;1.38;0.90;;;13.70;89.90;;;;;;5094398;28;20078;-73
2024/04/09 06:13:14;;;;;;;1.02;0.88;;;13.60;89.80;;;;;;5112947;28;20063;-73
2024/04/09 06:15:40;;;;;;;1.55;1.00;;;13.70;89.90;;;;;;5112494;28;20485;-73
2024/04/09 06:18:06;;;;;;;0.95;0.90;;;13.60;89.90;;;;;;5077292;28;20114;-73
2024/04/09 06:20:34;;;;;;;2.08;0.80;;;13.60;89.80;;;;;;5112748;28;20520;-73
2024/04/09 06:23:00;;;;;;;1.23;0.90;;;13.60;89.80;;;;;;5094294;28;20044;-73
2024/04/09 06:25:26;;;;;;;1.08;0.90;;;13.60;89.80;;;;;;5112196;28;20119;-73
2024/04/09 06:27:51;;;;;;;1.08;0.90;;;13.60;89.80;;;;;;5094075;28;20036;-72
2024/04/09 06:30:17;;;;;;;0.80;0.80;;;13.60;89.80;;;;;;5093791;28;20031;-73
2024/04/09 06:32:43;;;;;;;1.10;0.82;;;13.60;89.80;;;;;;5093730;28;20043;-73
2024/04/09 06:35:08;;;;;;;0.88;0.88;;;13.70;89.80;;;;;;5114520;28;20063;-73
2024/04/09 06:37:35;;;;;;;0.77;0.73;;;13.60;89.70;;;;;;5115485;28;20044;-72
2024/04/09 06:40:01;;;;;;;0.60;0.60;;;13.60;89.70;;;;;;5097211;28;20540;-73
2024/04/09 06:42:26;;;;;;;0.82;0.55;;;13.60;89.70;;;;;;5115718;28;20123;-74
2024/04/09 06:44:52;;;;;;;0.88;0.70;;;13.60;89.50;;;;;;5097015;28;20039;-73
2024/04/09 06:47:18;;;;;;;0.70;0.70;;;13.60;89.50;;;;;;5115663;28;20035;-73
2024/04/09 06:49:44;;;;;;;1.10;0.70;;;13.60;89.40;;;;;;5097212;28;20036;-74
2024/04/09 06:52:10;;;;;;;1.55;0.70;;;13.60;89.30;;;;;;5097420;28;20516;-73
2024/04/09 06:54:35;;;;;;;1.33;0.65;;;13.60;89.20;;;;;;5115322;28;20039;-74
2024/04/09 06:57:04;;;;;;;0.93;0.80;;;13.60;89.10;;;;;;5115489;28;20040;-75
2024/04/09 06:59:30;;;;;;;1.73;0.60;;;13.60;88.90;;;;;;5080330;28;20036;-75
2024/04/09 07:01:55;;;;;;;1.45;0.63;;;13.40;89.30;;;;;;5096816;28;20054;-73
2024/04/09 07:04:23;;;;;;;2.47;0.70;;;13.50;88.70;;;;;;5096968;28;20041;-74
2024/04/09 07:06:49;;;;;;;2.17;0.80;;;13.50;88.60;;;;;;5063974;28;20055;-74
2024/04/09 07:09:17;;;;;;;0.70;0.60;;;13.30;88.60;;;;;;5063181;28;20504;-75
2024/04/09 07:11:44;;;;;;;1.15;0.52;;;13.30;88.60;;;;;;5115138;28;20048;-73
2024/04/09 07:14:13;;;;;;;2.25;0.82;;;13.10;88.40;;;;;;5096957;28;20131;-74
2024/04/09 07:16:41;;;;;;;0.70;0.50;;;13.20;88.40;;;;;;5114620;28;20047;-73
2024/04/09 07:19:07;;;;;;;0.70;0.60;;;13.10;88.20;;;;;;5097075;28;20039;-74
2024/04/09 07:21:33;;;;;;;1.35;0.73;;;13.10;88.20;;;;;;5097054;28;20048;-74
2024/04/09 07:23:58;;;;;;;0.38;0.35;;;13.10;88.20;;;;;;5096518;28;20493;-75
2024/04/09 07:26:24;;;;;;;0.95;0.50;;;12.90;88.10;;;;;;5080002;28;20501;-74
2024/04/09 07:28:51;;;;;;;0.45;0.45;;;12.90;88.10;;;;;;5096480;28;20573;-73
2024/04/09 07:31:21;;;;;;;0.40;0.40;;;12.80;87.90;;;;;;5063114;28;20070;-75
2024/04/09 07:33:47;;;;;;;2.17;0.70;;;12.80;87.70;;;;;;5080050;28;20523;-74
2024/04/09 07:36:13;;;;;;;1.17;0.60;;;12.80;87.60;;;;;;5114608;28;20071;-73
2024/04/09 07:38:40;;;;;;;0.65;0.50;;;12.70;87.30;;;;;;5115073;28;20501;-74
2024/04/09 07:41:06;;;;;;;2.05;0.50;;;12.70;87.20;;;;;;5096384;28;20043;-73
2024/04/09 07:43:32;;;;;;;1.08;0.50;;;12.70;87.20;;;;;;5079731;28;20044;-74
2024/04/09 07:45:59;;;;;;;1.13;0.40;;;12.70;87.20;;;;;;5114326;28;20063;-74
2024/04/09 07:48:25;;;;;;;0.63;0.30;;;12.70;86.90;;;;;;5114961;28;20050;-74
2024/04/09 07:50:51;;;;;;;1.23;0.47;;;12.60;86.60;;;;;;5079176;28;20047;-73
2024/04/09 07:53:18;;;;;;;0.32;0.32;;;12.70;86.50;;;;;;5096101;28;20051;-73
2024/04/09 07:55:45;;;;;;;1.83;0.40;;;12.70;86.40;;;;;;5114582;28;20114;-74
2024/04/09 07:58:11;;;;;;;0.60;0.50;;;12.70;86.30;;;;;;5079265;28;20043;-73
2024/04/09 08:00:38;;;;;;;1.42;0.60;;;12.70;86.00;;;;;;5096127;28;20043;-74
2024/04/09 08:03:04;;;;;;;0.88;0.50;;;12.70;85.80;;;;;;5114082;28;20052;-74
2024/04/09 08:05:30;;;;;;;0.28;0.28;;;12.80;85.70;;;;;;5113955;28;20118;-74
2024/04/09 08:07:55;;;;;;;2.42;0.47;;;12.80;85.60;;;;;;5079248;28;20062;-73
2024/04/09 08:10:21;;;;;;;1.00;0.47;;;12.90;85.50;;;;;;5095912;28;20046;-74
2024/04/09 08:12:54;;;;;;;0.50;0.40;;;12.90;85.10;;;;;;5095836;28;20054;-74
2024/04/09 08:15:20;;;;;;;3.10;0.50;;;12.90;85.00;;;;;;5114112;28;20052;-73
2024/04/09 08:17:48;;;;;;;0.40;0.40;;;12.90;85.00;;;;;;5096223;28;20171;-72
2024/04/09 08:20:15;;;;;;;1.00;0.40;;;12.90;85.00;;;;;;5095575;28;20043;-73
2024/04/09 08:22:41;;;;;;;0.40;0.40;;;12.90;84.90;;;;;;5114116;28;20071;-72
2024/04/09 08:25:08;;;;;;;0.80;0.50;;;12.80;84.90;;;;;;5114505;28;20039;-72
2024/04/09 08:27:36;;;;;;;1.80;0.50;;;12.90;84.90;;;;;;5113527;28;20477;-72
2024/04/09 08:30:05;;;;;;;0.40;0.40;;;12.80;84.80;;;;;;5113797;28;20055;-73
2024/04/09 08:32:32;;;;;;;1.08;0.50;;;12.80;84.80;;;;;;5078943;28;20089;-73
2024/04/09 08:34:58;;;;;;;0.40;0.30;;;12.80;84.60;;;;;;5113834;28;20169;-73
2024/04/09 08:37:25;;;;;;;0.55;0.40;;;12.90;84.70;;;;;;5095501;28;20032;-72
2024/04/09 08:39:55;;;;;;;0.80;0.47;;;12.90;84.60;;;;;;5095386;28;20040;-72
2024/04/09 08:42:23;;;;;;;1.83;0.60;;;13.00;84.40;;;;;;5095583;28;20119;-73
2024/04/09 08:44:50;;;;;;;0.80;0.50;;;13.00;84.20;;;;;;5113661;28;20028;-73
2024/04/09 08:47:20;;;;;;;1.30;0.50;;;13.00;84.10;;;;;;5113285;28;20032;-74
2024/04/09 08:49:48;;;;;;;1.98;0.70;;;13.00;84.00;;;;;;5079116;28;20042;-73
2024/04/09 08:52:17;;;;;;;1.25;0.40;;;13.00;83.90;;;;;;5095158;28;20058;-74
2024/04/09 08:54:43;;;;;;;1.35;0.60;;;13.20;84.00;;;;;;5095138;28;20118;-74
2024/04/09 08:57:09;;;;;;;0.75;0.40;;;13.20;83.60;;;;;;5077480;28;20123;-73
2024/04/09 08:59:36;;;;;;;1.92;0.50;;;13.20;83.40;;;;;;5094970;28;20496;-74
2024/04/09 09:02:17;;;;;;;1.33;0.40;;;13.20;83.30;;;;;;5095011;28;20139;-73
2024/04/09 09:04:44;;;;;;;0.38;0.38;;;13.20;83.30;;;;;;5112804;28;20071;-73
2024/04/09 09:07:15;;;;;;;0.40;0.40;;;13.30;83.30;;;;;;5095634;28;20109;-75
2024/04/09 09:09:41;;;;;;;;;;;13.30;83.20;;;;;;5078941;28;20546;-74
2024/04/09 09:12:07;;;;;;;1.02;0.43;;;13.20;83.00;;;;;;5113057;28;19908;-75
2024/04/09 09:14:34;;;;;;;0.50;0.30;;;13.30;83.10;;;;;;5061309;28;20048;-75
2024/04/09 09:17:02;;;;;;;1.23;0.68;;;13.30;83.00;;;;;;5077941;28;20135;-75
2024/04/09 09:19:31;;;;;;;1.08;0.55;;;13.30;82.90;;;;;;5113076;28;20118;-74
2024/04/09 09:21:58;;;;;;;0.88;0.40;;;13.30;82.80;;;;;;5112987;28;20077;-73
2024/04/09 09:24:24;;;;;;;1.60;0.50;;;13.30;82.70;;;;;;5078155;28;20032;-71
2024/04/09 09:27:08;;;;;;;1.27;0.45;;;13.30;82.70;;;;;;5112912;28;20035;-73
2024/04/09 09:29:35;;;;;;;2.03;0.75;;;13.40;82.40;;;;;;5095266;28;20028;-71
2024/04/09 09:32:02;;;;;;;0.70;0.40;;;13.40;82.20;;;;;;5094501;28;20397;-72
2024/04/09 09:34:43;;;;;;;0.88;0.50;;;13.30;81.80;;;;;;5113334;28;20044;-74
2024/04/09 09:37:10;;;;;;;1.88;0.70;;;13.30;81.70;;;;;;5112685;28;20061;-75
2024/04/09 09:39:39;;;;;;;1.73;0.50;;;13.30;81.80;;;;;;5094731;28;20122;-73
2024/04/09 09:42:06;;;;;;;1.85;0.63;;;13.30;81.60;;;;;;5078651;28;20040;-73
2024/04/09 09:44:36;;;;;;;1.65;0.50;;;13.30;81.50;;;;;;5077766;28;20040;-73
2024/04/09 09:47:04;;;;;;;0.55;0.40;;;13.30;81.30;;;;;;5112595;28;20047;-74
2024/04/09 09:49:30;;;;;;;1.10;0.45;;;13.30;81.10;;;;;;5060978;28;20546;-73
2024/04/09 09:51:57;;;;;;;1.00;0.40;;;13.40;81.10;;;;;;5095121;28;20043;-74
2024/04/09 09:54:23;;;;;;;1.17;0.40;;;13.40;80.90;;;;;;5094167;28;20051;-72
2024/04/09 09:56:52;;;;;;;0.77;0.47;;;13.30;80.90;;;;;;5112755;28;20131;-73
2024/04/09 09:59:21;;;;;;;0.57;0.40;;;13.40;80.70;;;;;;5077201;28;20045;-73
2024/04/09 10:01:50;;;;;;;3.38;0.70;;;13.30;80.40;;;;;;5094601;28;20054;-73
2024/04/09 10:04:16;;;;;;;1.65;0.63;;;13.30;80.30;;;;;;5113140;28;20035;-72
2024/04/09 10:06:52;;;;;;;1.80;0.75;;;13.30;80.00;;;;;;5058927;28;20036;-73
2024/04/09 10:09:18;;;;;;;0.77;0.60;;;13.10;79.90;;;;;;5113513;28;20104;-72
2024/04/09 10:11:44;;;;;;;0.85;0.50;;;13.10;80.10;;;;;;5097644;28;20496;-74
2024/04/09 10:14:26;;;;;;;0.85;0.57;;;13.00;80.10;;;;;;5115845;28;20059;-75
2024/04/09 10:16:53;;;;;;;1.17;0.55;;;13.20;80.00;;;;;;5079403;28;20044;-74
2024/04/09 10:19:19;;;;;;;1.35;0.65;;;13.20;80.40;;;;;;5080834;28;20055;-72
2024/04/09 10:21:49;;;;;;;0.98;0.50;;;13.10;79.60;;;;;;5097603;28;20047;-73
2024/04/09 10:24:14;;;;;;;1.47;0.60;;;13.20;79.50;;;;;;5081375;28;20052;-72
2024/04/09 10:26:44;;;;;;;0.95;0.47;;;13.00;79.50;;;;;;5080690;28;20036;-73
2024/04/09 10:29:16;;;;;;;0.70;0.45;;;13.00;79.50;;;;;;5115500;28;20050;-72
2024/04/09 10:31:43;;;;;;;0.82;0.40;;;13.10;79.50;;;;;;5095810;28;20534;-73
2024/04/09 10:34:09;;;;;;;0.90;0.50;;;13.10;79.40;;;;;;5116196;28;20036;-73
2024/04/09 10:36:36;;;;;;;0.90;0.50;;;13.20;79.30;;;;;;5116221;28;20096;-72
2024/04/09 10:39:03;;;;;;;1.42;0.50;;;13.20;79.00;;;;;;5115588;28;20098;-72
2024/04/09 10:41:29;;;;;;;1.00;0.50;;;13.20;78.70;;;;;;5097546;28;20097;-72
2024/04/09 10:43:54;;;;;;;0.40;0.40;;;13.20;78.60;;;;;;5097193;28;20039;-73
2024/04/09 10:46:20;;;;;;;1.40;0.40;;;13.30;78.40;;;;;;5115455;28;20516;-74
2024/04/09 10:48:46;;;;;;;2.20;0.45;;;13.40;78.40;;;;;;5097263;28;20498;-73
2024/04/09 10:51:12;;;;;;;1.20;0.40;;;13.50;78.10;;;;;;5097837;28;20042;-73
2024/04/09 10:53:38;;;;;;;1.30;0.50;;;13.50;77.70;;;;;;5097304;28;20035;-73
2024/04/09 10:56:04;;;;;;;1.60;0.52;;;13.60;77.60;;;;;;5115514;28;20047;-72
2024/04/09 10:58:36;;;;;;;1.25;0.40;;;13.60;77.30;;;;;;5080321;28;20074;-73
2024/04/09 11:01:02;;;;;;;1.58;0.50;;;13.60;77.10;;;;;;5097331;28;20485;-72
2024/04/09 11:03:28;;;;;;;1.33;0.52;;;13.60;77.00;;;;;;5096815;28;20045;-73
2024/04/09 11:05:54;;;;;;;1.60;0.40;;;13.60;77.00;;;;;;5080182;28;20040;-73
2024/04/09 11:08:25;;;;;;;1.08;0.32;;;13.50;77.00;;;;;;5115335;28;20082;-73
2024/04/09 11:10:51;;;;;;;0.77;0.40;;;13.40;77.10;;;;;;5097083;28;20054;-73
2024/04/09 11:13:17;;;;;;;0.88;0.43;;;13.50;77.30;;;;;;5096650;28;20130;-73
2024/04/09 11:15:43;;;;;;;1.38;0.40;;;13.50;77.10;;;;;;5115042;28;20039;-72
2024/04/09 11:18:13;;;;;;;0.75;0.35;;;13.40;77.00;;;;;;5096566;28;20064;-72
2024/04/09 11:20:39;;;;;;;0.37;0.30;;;13.60;77.10;;;;;;5095896;28;20120;-73
2024/04/09 11:23:07;;;;;;;0.35;0.35;;;13.60;76.90;;;;;;5096992;28;20793;-72
2024/04/09 11:25:36;;;;;;;0.88;0.40;;;13.60;76.80;;;;;;5075431;28;20046;-73
2024/04/09 11:28:04;;;;;;;1.63;0.30;;;13.60;76.90;;;;;;5095071;28;20043;-73
2024/04/09 11:30:32;;;;;;;0.28;0.20;;;13.60;76.70;;;;;;5096971;28;20036;-72
2024/04/09 11:32:57;;;;;;;0.52;0.38;;;13.70;76.50;;;;;;5114753;28;20039;-72
2024/04/09 11:35:25;;;;;;;1.23;0.30;;;13.70;76.20;;;;;;5115271;28;20044;-72
2024/04/09 11:37:55;;;;;;;0.70;0.40;;;13.70;76.20;;;;;;5114377;28;20044;-72
2024/04/09 11:40:22;;;;;;;2.00;0.50;;;13.80;76.00;;;;;;5114440;28;20031;-74
2024/04/09 11:42:51;;;;;;;0.70;0.30;;;13.90;76.10;;;;;;5096245;28;20066;-72
2024/04/09 11:45:20;;;;;;;1.08;0.40;;;13.80;75.70;;;;;;5113261;28;20409;-72
2024/04/09 11:47:46;;;;;;;1.35;0.50;;;13.90;75.50;;;;;;5114758;28;20508;-72
2024/04/09 11:50:12;;;;;;;1.65;0.30;;;14.00;75.10;;;;;;5114518;28;20043;-73
2024/04/09 11:52:38;;;;;;;2.95;0.50;;;14.20;74.60;;;;;;5079331;28;20036;-72
2024/04/09 11:55:04;;;;;;;0.43;0.40;;;14.20;74.40;;;;;;5079352;28;20035;-73
2024/04/09 11:57:30;;;;;;;2.28;0.38;;;14.20;74.40;;;;;;5096818;28;20093;-73
2024/04/09 11:59:56;;;;;;;1.00;0.57;;;14.20;74.10;;;;;;5096246;28;20043;-73
2024/04/09 12:02:22;;;;;;;1.05;0.40;;;14.10;73.80;;;;;;5114167;28;20085;-72
2024/04/09 12:04:48;;;;;;;0.95;0.50;;;14.10;74.00;;;;;;5114549;28;20042;-72
2024/04/09 12:07:14;;;;;;;2.00;0.40;;;14.00;73.80;;;;;;5079102;28;20036;-72
2024/04/09 12:09:40;;;;;;;0.30;0.30;;;14.00;73.90;;;;;;5114657;28;20504;-71
2024/04/09 12:12:08;;;;;;;1.25;0.50;;;13.90;73.90;;;;;;5114216;28;20074;-72
2024/04/09 12:14:36;;;;;;;1.27;0.50;;;13.90;74.10;;;;;;5114163;28;20424;-72
2024/04/09 12:17:02;;;;;;;1.00;0.55;;;13.80;74.00;;;;;;5096314;28;20039;-73
2024/04/09 12:19:27;;;;;;;0.77;0.40;;;13.80;74.10;;;;;;5095791;28;20048;-73
2024/04/09 12:21:53;;;;;;;1.27;0.45;;;13.90;73.90;;;;;;5114224;28;20050;-73
2024/04/09 12:24:19;;;;;;;1.27;0.60;;;13.80;73.90;;;;;;5095944;28;20031;-73
2024/04/09 12:26:47;;;;;;;0.30;0.30;;;13.80;73.80;;;;;;5095814;28;20055;-74
2024/04/09 12:29:13;;;;;;;0.68;0.28;;;13.80;73.80;;;;;;5095451;28;20047;-73
2024/04/09 12:31:38;;;;;;;0.85;0.50;;;13.70;73.90;;;;;;5112986;28;20396;-72
2024/04/09 12:34:04;;;;;;;0.85;0.30;;;13.70;73.90;;;;;;5095503;28;20036;-74
2024/04/09 12:36:31;;;;;;;1.35;0.50;;;13.80;73.70;;;;;;5095417;28;20135;-74
2024/04/09 12:38:57;;;;;;;1.60;0.60;;;13.90;73.40;;;;;;5113892;28;20105;-73
2024/04/09 12:41:23;;;;;;;1.70;0.60;;;13.90;73.20;;;;;;5095366;28;20503;-72
2024/04/09 12:43:49;;;;;;;2.38;0.60;;;13.90;73.10;;;;;;5095334;28;20500;-73
2024/04/09 12:46:14;;;;;;;0.30;0.30;;;13.90;73.00;;;;;;5078553;28;20040;-73